Prairie Home, Nebraska
Current Conditions -  °F | °C
As of 7:54 PM on Monday 24 Nov 2014 (Local Time) from KLNK Reporting Station
Clear Clear  
Wind Chill: 22°   Ceiling: Unl
Heat Index: 31°   Visibility: 10mi
Dew Point:   Wind: 12mph
Humidity: 35%   Direction: 320°NW
Pressure: 30.05"   Gusts: NA
Location:  40.8461°N, 96.5203°W
Report Text: KLNK 250154Z 32010KT 10SM CLR M01/M14 A3005 RMK AO2 SLP189 T10061144
Loading
Personal Weather Stations






























Interactive Weather Map New forecast layout! Learn more

10-Day Weather Forecast

Advertisements
Track Severe Weather on mobile